Time;durP1;ratioP1;P1;durP2;ratioP2;P2;SDS_P1;SDS_P2;PMS_P1;PMS_P2;Temp;Humidity;BMP_temperature;BMP_pressure;BME280_temperature;BME280_humidity;BME280_pressure;Samples;Min_cycle;Max_cycle;Signal;HPM_P1;HPM_P2
2022/04/10 00:01:29;;;;;;;;;;;;;;;13.34;60.32;98489.09;4988461;28;20340;-80
2022/04/10 00:03:56;;;;;;;;;;;;;;;13.32;60.58;98490.91;4990737;28;20000;-81
2022/04/10 00:06:22;;;;;;;;;;;;;;;13.06;61.21;98487.63;4989450;28;19925;-80
2022/04/10 00:08:47;;;;;;;;;;;;;;;13.06;60.69;98484.16;4990005;28;19921;-80
2022/04/10 00:11:13;;;;;;;;;;;;;;;13.03;60.61;98490.41;5009159;28;19917;-80
2022/04/10 00:13:38;;;;;;;;;;;;;;;13.12;61.01;98478.56;5000051;28;19921;-80
2022/04/10 00:16:04;;;;;;;;;;;;;;;13.20;62.25;98480.88;4995860;28;19921;-80
2022/04/10 00:18:31;;;;;;;;;;;;;;;13.22;63.05;98484.31;4997450;28;19924;-80
2022/04/10 00:20:56;;;;;;;;;;;;;;;13.19;63.12;98487.09;4989091;28;20416;-80
2022/04/10 00:23:21;;;;;;;;;;;;;;;13.31;63.01;98496.28;4997409;28;19951;-80
2022/04/10 00:25:47;;;;;;;;;;;;;;;13.28;63.46;98494.63;5009365;28;20020;-80
2022/04/10 00:28:12;;;;;;;;;;;;;;;13.23;63.94;98501.94;5000775;28;20408;-80
2022/04/10 00:30:37;;;;;;;;;;;;;;;12.99;63.99;98499.44;4989739;28;19922;-80
2022/04/10 00:33:02;;;;;;;;;;;;;;;12.82;64.03;98489.59;4994805;28;19964;-81
2022/04/10 00:35:28;;;;;;;;;;;;;;;12.74;64.88;98496.13;5005163;28;19977;-80
2022/04/10 00:37:53;;;;;;;;;;;;;;;12.67;65.50;98499.03;4989148;28;19993;-80
2022/04/10 00:40:18;;;;;;;;;;;;;;;12.67;66.10;98487.59;4989063;28;20392;-80
2022/04/10 00:42:48;;;;;;;;;;;;;;;12.70;66.66;98483.03;4990027;28;19948;-80
2022/04/10 00:45:13;;;;;;;;;;;;;;;12.58;67.72;98486.22;4988716;28;19925;-80
2022/04/10 00:47:38;;;;;;;;;;;;;;;12.88;67.74;98480.50;5019632;28;19948;-80
2022/04/10 00:50:05;;;;;;;;;;;;;;;13.04;67.31;98486.00;4988852;28;19957;-80
2022/04/10 00:52:30;;;;;;;;;;;;;;;13.10;67.15;98495.44;4992926;28;19979;-79
2022/04/10 00:54:57;;;;;;;;;;;;;;;13.35;66.41;98488.16;4992780;28;19925;-80
2022/04/10 00:57:23;;;;;;;;;;;;;;;13.28;66.80;98494.63;4997358;28;20024;-80
2022/04/10 00:59:48;;;;;;;;;;;;;;;13.41;66.42;98497.63;5008685;28;20377;-80
2022/04/10 01:02:14;;;;;;;;;;;;;;;13.48;66.72;98501.69;5003902;28;19957;-80
2022/04/10 01:04:39;;;;;;;;;;;;;;;13.52;66.90;98498.00;4992598;28;19964;-80
2022/04/10 01:07:05;;;;;;;;;;;;;;;13.47;67.06;98504.41;5006769;28;19957;-80
2022/04/10 01:09:34;;;;;;;;;;;;;;;13.59;66.58;98499.44;4995622;28;19998;-80
2022/04/10 01:12:00;;;;;;;;;;;;;;;13.72;65.39;98501.50;5005118;28;20004;-81
2022/04/10 01:14:26;;;;;;;;;;;;;;;13.85;64.95;98499.97;4989391;28;20012;-81
2022/04/10 01:16:52;;;;;;;;;;;;;;;13.86;64.86;98492.91;4994499;28;19968;-81
2022/04/10 01:19:18;;;;;;;;;;;;;;;13.72;65.06;98489.09;4988430;28;19917;-80
2022/04/10 01:21:46;;;;;;;;;;;;;;;13.74;65.18;98486.38;4990086;28;20392;-80
2022/04/10 01:24:11;;;;;;;;;;;;;;;13.82;64.86;98493.97;5007549;28;19932;-80
2022/04/10 01:26:37;;;;;;;;;;;;;;;13.77;65.00;98500.34;4970395;28;20328;-80
2022/04/10 01:29:03;;;;;;;;;;;;;;;13.81;65.16;98502.84;4968252;28;19961;-80
2022/04/10 01:31:30;;;;;;;;;;;;;;;13.69;66.16;98499.84;4969510;28;19956;-80
2022/04/10 01:33:57;;;;;;;;;;;;;;;13.75;65.74;98504.88;5007761;28;19917;-80
2022/04/10 01:36:27;;;;;;;;;;;;;;;13.71;65.97;98503.28;4990142;28;19932;-80
2022/04/10 01:38:52;;;;;;;;;;;;;;;13.74;65.87;98508.44;4988277;28;19930;-81
2022/04/10 01:41:18;;;;;;;;;;;;;;;13.65;66.55;98510.66;4988645;28;20371;-80
2022/04/10 01:43:44;;;;;;;;;;;;;;;13.65;66.34;98502.72;5007725;28;20570;-81
2022/04/10 01:46:10;;;;;;;;;;;;;;;13.59;66.96;98503.84;4991742;28;19925;-81
2022/04/10 01:48:36;;;;;;;;;;;;;;;13.51;66.88;98488.31;4987851;28;20966;-81
2022/04/10 01:51:01;;;;;;;;;;;;;;;13.21;67.96;98483.47;4994152;28;19932;-82
2022/04/10 01:53:26;;;;;;;;;;;;;;;13.34;68.28;98485.59;5004924;28;19921;-81
2022/04/10 01:55:52;;;;;;;;;;;;;;;13.42;67.28;98481.66;4988407;28;19944;-81
2022/04/10 01:58:17;;;;;;;;;;;;;;;13.07;68.59;98476.13;4987232;28;20013;-81
2022/04/10 02:00:42;;;;;;;;;;;;;;;13.08;69.08;98482.28;5002587;28;19996;-80
2022/04/10 02:03:07;;;;;;;;;;;;;;;12.98;69.34;98484.47;4988043;28;19930;-79
2022/04/10 02:05:33;;;;;;;;;;;;;;;13.01;69.59;98478.19;5003288;28;19921;-79
2022/04/10 02:07:58;;;;;;;;;;;;;;;12.90;69.92;98474.22;4998001;28;20413;-80
2022/04/10 02:10:23;;;;;;;;;;;;;;;12.88;69.92;98475.22;5002842;28;19936;-80
2022/04/10 02:12:49;;;;;;;;;;;;;;;12.98;69.30;98468.59;4986789;28;19948;-80
2022/04/10 02:15:14;;;;;;;;;;;;;;;12.90;69.73;98478.69;5020424;28;19932;-80
2022/04/10 02:17:39;;;;;;;;;;;;;;;12.96;69.07;98478.41;4989692;28;19926;-80
2022/04/10 02:20:05;;;;;;;;;;;;;;;12.96;69.61;98483.69;4987399;28;19918;-80
2022/04/10 02:22:30;;;;;;;;;;;;;;;12.95;69.41;98471.38;5005086;28;19929;-80
2022/04/10 02:24:55;;;;;;;;;;;;;;;12.88;69.56;98476.09;5008239;28;20418;-81
2022/04/10 02:27:21;;;;;;;;;;;;;;;12.95;69.34;98468.75;5007594;28;20316;-80
2022/04/10 02:29:46;;;;;;;;;;;;;;;13.19;68.55;98473.84;5011136;28;19923;-80
2022/04/10 02:32:11;;;;;;;;;;;;;;;13.09;68.48;98465.47;4982327;28;19957;-80
2022/04/10 02:34:37;;;;;;;;;;;;;;;13.03;68.78;98461.31;4990487;28;20300;-81
2022/04/10 02:37:03;;;;;;;;;;;;;;;13.05;68.91;98470.06;4996372;28;19968;-80
2022/04/10 02:39:28;;;;;;;;;;;;;;;13.11;68.65;98476.00;5010521;28;19926;-80
2022/04/10 02:41:53;;;;;;;;;;;;;;;13.04;69.11;98463.03;4998168;28;19999;-80
2022/04/10 02:44:18;;;;;;;;;;;;;;;12.98;68.96;98465.97;4991458;28;19928;-80
2022/04/10 02:46:44;;;;;;;;;;;;;;;12.85;69.95;98464.75;5003479;28;19929;-80
2022/04/10 02:49:09;;;;;;;;;;;;;;;12.75;70.37;98461.66;4998784;28;19922;-80
2022/04/10 02:51:34;;;;;;;;;;;;;;;12.71;70.15;98470.66;5000137;28;19925;-80
2022/04/10 02:54:00;;;;;;;;;;;;;;;12.78;69.37;98464.19;5009574;28;20331;-80
2022/04/10 02:56:25;;;;;;;;;;;;;;;12.90;69.17;98470.75;4999943;28;19929;-80
2022/04/10 02:58:50;;;;;;;;;;;;;;;12.92;68.99;98466.22;4991299;28;19918;-80
2022/04/10 03:01:16;;;;;;;;;;;;;;;12.87;69.05;98469.06;4996636;28;19922;-80
2022/04/10 03:03:42;;;;;;;;;;;;;;;12.92;68.62;98463.56;4996796;28;19965;-79
2022/04/10 03:06:07;;;;;;;;;;;;;;;12.80;68.91;98461.47;5000810;28;20435;-80
2022/04/10 03:08:32;;;;;;;;;;;;;;;12.68;69.72;98457.56;4997439;28;19925;-80
2022/04/10 03:10:58;;;;;;;;;;;;;;;12.62;69.87;98455.19;4993609;28;19921;-81
2022/04/10 03:13:23;;;;;;;;;;;;;;;12.66;69.38;98460.28;4999786;28;19956;-82
2022/04/10 03:15:48;;;;;;;;;;;;;;;12.80;68.95;98461.47;4990548;28;19971;-80
2022/04/10 03:18:14;;;;;;;;;;;;;;;12.77;68.88;98465.09;4989921;28;19930;-81
2022/04/10 03:20:39;;;;;;;;;;;;;;;12.66;69.17;98468.22;5009072;28;19924;-80
2022/04/10 03:23:08;;;;;;;;;;;;;;;12.53;69.61;98464.38;4990639;28;19961;-81
2022/04/10 03:25:34;;;;;;;;;;;;;;;12.45;70.04;98462.06;4998728;28;20412;-81
2022/04/10 03:27:59;;;;;;;;;;;;;;;12.45;70.20;98462.06;5010124;28;19929;-80
2022/04/10 03:30:24;;;;;;;;;;;;;;;12.29;70.49;98459.19;4992965;28;19926;-80
2022/04/10 03:32:50;;;;;;;;;;;;;;;12.35;70.24;98458.09;5008341;28;19921;-80
2022/04/10 03:35:15;;;;;;;;;;;;;;;12.34;70.41;98451.06;5009775;28;20031;-80
2022/04/10 03:37:40;;;;;;;;;;;;;;;12.25;70.71;98457.63;4996924;28;19984;-79
2022/04/10 03:40:06;;;;;;;;;;;;;;;12.37;70.38;98458.88;4990118;28;19965;-80
2022/04/10 03:42:38;;;;;;;;;;;;;;;12.46;69.95;98447.06;4996475;28;20951;-79
2022/04/10 03:45:04;;;;;;;;;;;;;;;12.48;70.10;98458.41;4992580;28;20025;-81
2022/04/10 03:47:29;;;;;;;;;;;;;;;12.61;69.39;98458.78;4990776;28;19933;-81
2022/04/10 03:49:55;;;;;;;;;;;;;;;12.51;69.65;98461.81;4990095;28;19925;-81
2022/04/10 03:52:20;;;;;;;;;;;;;;;12.67;69.32;98461.16;4988961;28;19921;-80
2022/04/10 03:54:46;;;;;;;;;;;;;;;12.46;69.81;98458.47;4988762;28;19933;-80
2022/04/10 03:57:11;;;;;;;;;;;;;;;12.36;70.53;98465.09;4989171;28;20480;-80
2022/04/10 03:59:36;;;;;;;;;;;;;;;12.49;70.08;98470.72;5019964;28;19928;-80
2022/04/10 04:02:01;;;;;;;;;;;;;;;12.64;69.54;98471.88;5004478;28;19928;-80
2022/04/10 04:04:27;;;;;;;;;;;;;;;12.70;69.55;98471.59;4989618;28;19924;-79
2022/04/10 04:06:52;;;;;;;;;;;;;;;12.52;70.06;98468.78;4989487;28;19925;-79
2022/04/10 04:09:17;;;;;;;;;;;;;;;12.55;70.06;98475.75;4988801;28;20005;-80
2022/04/10 04:11:43;;;;;;;;;;;;;;;12.76;69.40;98471.34;4990643;28;20409;-80
2022/04/10 04:14:08;;;;;;;;;;;;;;;12.98;68.51;98476.53;4990992;28;19917;-79
2022/04/10 04:16:34;;;;;;;;;;;;;;;13.19;67.89;98487.09;4988455;28;19926;-80
2022/04/10 04:18:59;;;;;;;;;;;;;;;13.24;67.35;98488.63;4989033;28;19921;-80
2022/04/10 04:21:25;;;;;;;;;;;;;;;13.44;66.63;98500.13;4992016;28;19929;-79
2022/04/10 04:23:51;;;;;;;;;;;;;;;13.44;67.08;98494.84;5008467;28;19928;-79
2022/04/10 04:26:16;;;;;;;;;;;;;;;13.48;66.30;98496.41;5001511;28;19925;-80
2022/04/10 04:28:42;;;;;;;;;;;;;;;13.58;66.06;98512.75;4996063;28;19922;-82
2022/04/10 04:31:07;;;;;;;;;;;;;;;13.44;66.58;98510.72;4994904;28;19960;-80
2022/04/10 04:33:32;;;;;;;;;;;;;;;13.54;66.48;98516.47;5008763;28;19926;-80
2022/04/10 04:35:57;;;;;;;;;;;;;;;13.55;65.98;98523.50;5009069;28;19921;-81
2022/04/10 04:38:23;;;;;;;;;;;;;;;13.05;67.45;98530.06;5008383;28;19917;-80
2022/04/10 04:40:48;;;;;;;;;;;;;;;12.81;68.80;98529.34;5009068;28;19925;-80
2022/04/10 04:43:13;;;;;;;;;;;;;;;13.01;68.29;98534.63;5008828;28;19987;-80
2022/04/10 04:45:39;;;;;;;;;;;;;;;13.32;67.09;98533.28;5007789;28;20458;-80
2022/04/10 04:48:04;;;;;;;;;;;;;;;13.45;66.49;98535.44;4995323;28;20029;-81
2022/04/10 04:50:29;;;;;;;;;;;;;;;13.60;65.51;98524.97;4988415;28;19922;-80
2022/04/10 04:52:55;;;;;;;;;;;;;;;13.75;65.92;98535.81;5020143;28;20731;-80
2022/04/10 04:55:20;;;;;;;;;;;;;;;13.81;65.53;98546.13;4986867;28;19965;-80
2022/04/10 04:57:46;;;;;;;;;;;;;;;13.85;65.40;98546.84;4987301;28;19918;-80
2022/04/10 05:00:11;;;;;;;;;;;;;;;13.90;65.33;98550.13;4987973;28;19922;-80
2022/04/10 05:02:37;;;;;;;;;;;;;;;13.91;65.10;98543.91;4988232;28;19926;-80
2022/04/10 05:05:03;;;;;;;;;;;;;;;13.93;65.68;98529.66;4988789;28;19961;-80
2022/04/10 05:07:28;;;;;;;;;;;;;;;14.07;64.58;98525.47;4988307;28;19921;-80
2022/04/10 05:09:53;;;;;;;;;;;;;;;14.04;65.29;98525.63;4988600;28;20404;-80
2022/04/10 05:12:18;;;;;;;;;;;;;;;14.12;64.70;98534.94;5020035;28;19925;-80
2022/04/10 05:14:45;;;;;;;;;;;;;;;14.10;65.24;98535.94;4988210;28;19976;-80
2022/04/10 05:17:11;;;;;;;;;;;;;;;14.15;64.74;98534.78;4989059;28;19921;-80
2022/04/10 05:19:36;;;;;;;;;;;;;;;14.18;64.97;98527.59;4988375;28;19929;-80
2022/04/10 05:22:02;;;;;;;;;;;;;;;14.18;64.91;98539.09;4988407;28;19921;-80
2022/04/10 05:24:27;;;;;;;;;;;;;;;14.23;64.80;98531.78;4987073;28;20021;-81
2022/04/10 05:26:52;;;;;;;;;;;;;;;14.24;64.58;98535.25;4988081;28;19932;-79
2022/04/10 05:29:18;;;;;;;;;;;;;;;14.24;64.97;98548.53;4986288;28;19972;-80
2022/04/10 05:31:45;;;;;;;;;;;;;;;14.25;65.29;98545.81;4968154;28;20229;-80
2022/04/10 05:34:11;;;;;;;;;;;;;;;14.33;64.61;98535.69;4968932;28;19922;-79
2022/04/10 05:36:36;;;;;;;;;;;;;;;14.22;65.41;98542.44;4974435;28;20404;-79
2022/04/10 05:39:02;;;;;;;;;;;;;;;14.32;65.59;98536.63;4988218;28;19922;-79
2022/04/10 05:41:27;;;;;;;;;;;;;;;14.41;64.80;98529.13;4987210;28;19937;-80
2022/04/10 05:43:52;;;;;;;;;;;;;;;14.48;64.82;98533.22;5019910;28;20415;-80
2022/04/10 05:46:17;;;;;;;;;;;;;;;14.43;65.35;98536.09;5020064;28;19949;-80
2022/04/10 05:48:43;;;;;;;;;;;;;;;14.44;65.78;98527.22;4987993;28;19976;-80
2022/04/10 05:51:08;;;;;;;;;;;;;;;14.21;65.34;98535.41;4988149;28;20012;-80
2022/04/10 05:53:33;;;;;;;;;;;;;;;14.30;65.18;98533.19;4987950;28;20001;-79
2022/04/10 05:55:59;;;;;;;;;;;;;;;14.37;65.61;98528.44;4988175;28;20020;-80
2022/04/10 05:58:24;;;;;;;;;;;;;;;14.23;64.90;98518.50;4987546;28;19926;-80
2022/04/10 06:00:49;;;;;;;;;;;;;;;14.18;65.14;98527.59;4990310;28;19918;-78
2022/04/10 06:03:15;;;;;;;;;;;;;;;14.22;66.64;98529.19;4990662;28;19925;-79
2022/04/10 06:05:40;;;;;;;;;;;;;;;14.09;67.37;98527.13;4974269;28;19994;-79
2022/04/10 06:08:05;;;;;;;;;;;;;;;14.21;66.36;98532.75;4974522;28;20408;-79
2022/04/10 06:10:31;;;;;;;;;;;;;;;14.58;66.75;98541.56;4979963;28;20401;-79
2022/04/10 06:13:05;;;;;;;;;;;;;;;14.57;64.92;98534.56;4982587;28;19922;-78
2022/04/10 06:15:31;;;;;;;;;;;;;;;14.47;67.20;98540.34;4990678;28;19941;-79
2022/04/10 06:17:56;;;;;;;;;;;;;;;14.89;65.13;98535.63;4991485;28;19918;-79
2022/04/10 06:20:21;;;;;;;;;;;;;;;14.72;65.95;98544.44;4992124;28;19961;-78
2022/04/10 06:22:47;;;;;;;;;;;;;;;15.01;65.47;98539.44;4991580;28;20012;-79
2022/04/10 06:25:13;;;;;;;;;;;;;;;14.94;63.95;98549.53;4991210;28;20439;-79
2022/04/10 06:27:38;;;;;;;;;;;;;;;14.80;64.22;98546.72;4991853;28;19932;-79
2022/04/10 06:30:04;;;;;;;;;;;;;;;14.88;63.17;98544.53;4991453;28;20008;-79
2022/04/10 06:32:29;;;;;;;;;;;;;;;15.24;64.37;98540.03;4987924;28;19922;-80
2022/04/10 06:34:54;;;;;;;;;;;;;;;15.46;62.37;98540.63;4991448;28;20714;-81
2022/04/10 06:37:19;;;;;;;;;;;;;;;15.68;60.80;98535.00;4990856;28;20447;-82
2022/04/10 06:39:45;;;;;;;;;;;;;;;15.77;61.02;98533.69;5021345;28;19926;-81
2022/04/10 06:42:11;;;;;;;;;;;;;;;16.01;59.69;98526.16;4983645;28;19926;-80
2022/04/10 06:44:37;;;;;;;;;;;;;;;15.91;59.67;98531.13;4987663;28;19922;-81
2022/04/10 06:47:02;;;;;;;;;;;;;;;16.17;59.01;98525.28;4991282;28;19992;-80
2022/04/10 06:49:28;;;;;;;;;;;;;;;16.41;58.58;98525.69;4990032;28;20448;-79
2022/04/10 06:51:53;;;;;;;;;;;;;;;16.57;57.87;98526.50;4991553;28;20020;-80
2022/04/10 06:54:18;;;;;;;;;;;;;;;16.57;57.78;98531.84;4990268;28;19972;-81
2022/04/10 06:56:44;;;;;;;;;;;;;;;16.47;58.34;98528.00;4990496;28;19925;-80
2022/04/10 06:59:10;;;;;;;;;;;;;;;16.23;58.60;98516.97;4990781;28;20412;-81
2022/04/10 07:01:35;;;;;;;;;;;;;;;16.39;58.48;98524.91;4991039;28;19980;-79
2022/04/10 07:04:01;;;;;;;;;;;;;;;16.54;57.53;98525.84;4991335;28;19976;-82
2022/04/10 07:06:26;;;;;;;;;;;;;;;16.63;57.39;98526.16;5005070;28;19921;-81
2022/04/10 07:08:51;;;;;;;;;;;;;;;16.83;58.01;98517.00;4990649;28;19922;-80
2022/04/10 07:11:17;;;;;;;;;;;;;;;17.16;56.60;98517.75;5004914;28;19968;-82
2022/04/10 07:13:42;;;;;;;;;;;;;;;17.54;56.74;98515.38;4990719;28;19930;-81
2022/04/10 07:16:08;;;;;;;;;;;;;;;17.90;54.44;98507.88;4990846;28;20307;-81
2022/04/10 07:18:33;;;;;;;;;;;;;;;17.75;53.83;98517.69;4990430;28;19922;-80
2022/04/10 07:20:59;;;;;;;;;;;;;;;17.67;53.80;98523.50;4990083;28;20591;-80
2022/04/10 07:23:43;;;;;;;;;;;;;;;17.70;54.79;98519.75;4990659;28;19965;-81
2022/04/10 07:26:09;;;;;;;;;;;;;;;17.81;54.39;98516.41;4990223;28;19926;-80
2022/04/10 07:28:35;;;;;;;;;;;;;;;17.94;54.11;98524.56;4990596;28;19933;-81
2022/04/10 07:31:00;;;;;;;;;;;;;;;17.77;54.78;98520.25;4990382;28;19969;-80
2022/04/10 07:33:26;;;;;;;;;;;;;;;18.13;54.78;98514.38;4990846;28;19921;-81
2022/04/10 07:35:51;;;;;;;;;;;;;;;18.18;53.86;98517.63;4989513;28;19925;-81
2022/04/10 07:38:17;;;;;;;;;;;;;;;18.24;53.64;98519.03;4990375;28;20016;-81
2022/04/10 07:40:43;;;;;;;;;;;;;;;18.67;52.71;98526.88;4989862;28;19925;-80
2022/04/10 07:43:08;;;;;;;;;;;;;;;18.78;52.92;98523.47;4989685;28;20320;-81
2022/04/10 07:48:17;;;;;;;;;;;;;;;17.93;54.80;98526.34;4990351;28;20476;-81
2022/04/10 07:50:44;;;;;;;;;;;;;;;17.78;55.82;98516.63;4990540;28;20000;-82
2022/04/10 07:53:09;;;;;;;;;;;;;;;18.25;56.64;98515.41;4989849;28;19973;-82
2022/04/10 07:55:35;;;;;;;;;;;;;;;18.57;54.70;98520.44;4989391;28;19957;-81
2022/04/10 07:58:00;;;;;;;;;;;;;;;18.84;54.03;98511.53;4989760;28;20304;-81
2022/04/10 08:00:26;;;;;;;;;;;;;;;19.19;53.38;98519.00;4989857;28;19929;-81
2022/04/10 08:02:52;;;;;;;;;;;;;;;19.29;51.15;98514.69;4990469;28;19917;-80
2022/04/10 08:05:18;;;;;;;;;;;;;;;18.90;53.12;98514.66;4989554;28;19940;-82
2022/04/10 08:07:44;;;;;;;;;;;;;;;19.18;52.81;98519.94;4989562;28;20423;-82
2022/04/10 08:10:10;;;;;;;;;;;;;;;19.07;52.40;98526.88;4988522;28;19922;-83
2022/04/10 08:12:35;;;;;;;;;;;;;;;19.34;51.97;98523.28;4978334;28;19922;-82
2022/04/10 08:15:00;;;;;;;;;;;;;;;19.14;52.67;98525.50;5004523;28;19921;-82
2022/04/10 08:17:26;;;;;;;;;;;;;;;19.02;52.82;98517.47;4989924;28;19928;-83
2022/04/10 08:19:51;;;;;;;;;;;;;;;19.37;52.17;98517.72;4985432;28;19930;-83
2022/04/10 08:22:23;;;;;;;;;;;;;;;19.00;52.57;98516.72;4989182;28;19922;-83
2022/04/10 08:24:48;;;;;;;;;;;;;;;19.02;52.94;98523.66;4989734;28;19922;-82
2022/04/10 08:27:13;;;;;;;;;;;;;;;18.95;53.48;98533.06;4988091;28;19929;-83
2022/04/10 08:29:39;;;;;;;;;;;;;;;19.18;52.27;98544.00;4989118;28;19924;-83
2022/04/10 08:32:04;;;;;;;;;;;;;;;18.78;53.89;98547.53;4988374;28;19928;-83
2022/04/10 08:34:29;;;;;;;;;;;;;;;17.77;56.75;98555.78;4988701;28;19922;-82
2022/04/10 08:36:55;;;;;;;;;;;;;;;17.27;59.41;98571.28;4989184;28;20314;-84
2022/04/10 08:39:21;;;;;;;;;;;;;;;17.31;59.34;98578.09;4988923;28;19921;-84
2022/04/10 08:41:47;;;;;;;;;;;;;;;17.07;59.29;98574.25;4989327;28;19921;-85
2022/04/10 08:44:14;;;;;;;;;;;;;;;17.25;59.63;98589.13;4988822;28;20651;-82
2022/04/10 08:46:39;;;;;;;;;;;;;;;17.53;58.58;98592.81;4989019;28;19926;-82
2022/04/10 08:49:06;;;;;;;;;;;;;;;17.28;58.84;98578.28;4988723;28;19980;-84
2022/04/10 08:51:31;;;;;;;;;;;;;;;17.65;58.15;98569.88;5004061;28;19988;-84
2022/04/10 08:53:57;;;;;;;;;;;;;;;17.82;56.88;98560.81;4988445;28;20369;-83
2022/04/10 08:56:23;;;;;;;;;;;;;;;17.64;58.29;98542.34;4988393;28;20051;-83
2022/04/10 08:58:49;;;;;;;;;;;;;;;17.43;59.15;98539.19;4988145;28;19959;-82
2022/04/10 09:01:18;;;;;;;;;;;;;;;17.66;58.99;98536.94;4988165;28;20447;-83
2022/04/10 09:03:45;;;;;;;;;;;;;;;17.65;58.47;98552.06;4987131;28;20730;-82
2022/04/10 09:06:10;;;;;;;;;;;;;;;17.84;58.04;98551.78;4988054;28;19917;-82
2022/04/10 09:08:36;;;;;;;;;;;;;;;17.39;59.60;98551.00;4988120;28;20027;-82
2022/04/10 09:11:04;;;;;;;;;;;;;;;17.20;60.17;98545.09;4988189;28;19972;-82
2022/04/10 09:13:30;;;;;;;;;;;;;;;17.33;59.45;98538.03;4988438;28;19964;-83
2022/04/10 09:16:04;;;;;;;;;;;;;;;17.18;59.66;98538.03;4988914;28;19961;-85
2022/04/10 09:18:43;;;;;;;;;;;;;;;17.33;59.20;98538.03;4988471;28;19968;-85
2022/04/10 09:21:09;;;;;;;;;;;;;;;16.85;56.96;98534.69;4988558;28;20028;-84
2022/04/10 09:23:34;;;;;;;;;;;;;;;16.89;55.93;98534.44;4988389;28;20024;-83
2022/04/10 09:26:00;;;;;;;;;;;;;;;17.06;55.46;98530.78;4988190;28;19926;-86
2022/04/10 09:28:44;;;;;;;;;;;;;;;17.14;53.58;98512.50;5005887;28;20023;-82
2022/04/10 09:31:26;;;;;;;;;;;;;;;17.26;52.52;98505.59;4999600;28;19929;-86
2022/04/10 09:33:52;;;;;;;;;;;;;;;17.10;52.39;98503.00;4994804;28;19925;-85
2022/04/10 09:36:37;;;;;;;;;;;;;;;17.51;53.28;98509.41;5004575;28;20816;-86
2022/04/10 09:39:23;;;;;;;;;;;;;;;17.68;52.67;98524.34;4989571;28;19941;-86
2022/04/10 09:41:48;;;;;;;;;;;;;;;18.15;53.66;98506.28;5006339;28;19975;-85
2022/04/10 09:44:20;;;;;;;;;;;;;;;18.41;51.43;98499.22;4998406;28;20653;-85
2022/04/10 09:47:08;;;;;;;;;;;;;;;18.25;51.30;98518.94;5003402;28;19918;-87
2022/04/10 09:49:35;;;;;;;;;;;;;;;18.08;56.52;98520.03;5002460;28;19932;-85
2022/04/10 09:52:19;;;;;;;;;;;;;;;18.92;51.35;98511.88;4988116;28;19929;-87
2022/04/10 09:54:48;;;;;;;;;;;;;;;19.62;54.33;98502.63;5003295;28;20392;-86
2022/04/10 09:57:20;;;;;;;;;;;;;;;19.87;48.38;98515.13;4998514;28;20623;-85
2022/04/10 09:59:46;;;;;;;;;;;;;;;20.24;47.68;98507.06;5001069;28;19980;-85
2022/04/10 10:02:13;;;;;;;;;;;;;;;20.47;49.99;98500.00;5003026;28;19926;-85
2022/04/10 10:04:39;;;;;;;;;;;;;;;20.80;49.32;98489.56;4987887;28;20408;-86
2022/04/10 10:07:06;;;;;;;;;;;;;;;21.02;44.56;98481.59;4993681;28;19925;-84
2022/04/10 10:09:31;;;;;;;;;;;;;;;20.71;47.07;98467.00;5007445;28;20469;-84
2022/04/10 10:11:58;;;;;;;;;;;;;;;20.98;49.04;98474.75;4993852;28;19922;-84
2022/04/10 10:14:23;;;;;;;;;;;;;;;21.37;44.60;98474.44;4987385;28;19929;-84
2022/04/10 10:16:49;;;;;;;;;;;;;;;21.60;43.18;98470.81;4989989;28;19925;-84
2022/04/10 10:19:15;;;;;;;;;;;;;;;21.46;44.10;98466.50;5020220;28;19926;-84
2022/04/10 10:21:40;;;;;;;;;;;;;;;21.55;44.69;98470.34;4987953;28;19980;-83
2022/04/10 10:24:07;;;;;;;;;;;;;;;20.88;45.60;98469.28;5019249;28;19977;-84
2022/04/10 10:26:52;;;;;;;;;;;;;;;21.30;44.26;98471.38;4988028;28;19932;-84
2022/04/10 10:29:30;;;;;;;;;;;;;;;20.66;45.14;98459.31;4987369;28;19922;-84
2022/04/10 10:32:03;;;;;;;;;;;;;;;20.30;44.58;98450.41;4991055;28;19932;-83
2022/04/10 10:34:29;;;;;;;;;;;;;;;20.14;46.38;98455.16;4987683;28;19929;-84
2022/04/10 10:36:55;;;;;;;;;;;;;;;20.06;47.57;98462.94;4986277;28;19922;-84
2022/04/10 10:39:21;;;;;;;;;;;;;;;20.26;47.27;98461.44;4985069;28;20629;-85
2022/04/10 10:41:50;;;;;;;;;;;;;;;20.39;46.95;98441.66;4984482;28;20028;-85
2022/04/10 10:44:17;;;;;;;;;;;;;;;20.32;47.10;98448.44;4987184;28;20427;-85
2022/04/10 10:47:02;;;;;;;;;;;;;;;20.63;46.23;98437.25;4996292;28;19927;-84
2022/04/10 10:49:29;;;;;;;;;;;;;;;20.99;45.56;98441.63;4994588;28;19933;-84
2022/04/10 10:51:55;;;;;;;;;;;;;;;20.83;47.13;98446.47;4991274;28;19918;-85
2022/04/10 10:54:27;;;;;;;;;;;;;;;20.53;45.80;98440.63;5004341;28;19925;-85
2022/04/10 10:56:53;;;;;;;;;;;;;;;20.70;45.88;98441.22;4997911;28;19917;-84
2022/04/10 10:59:26;;;;;;;;;;;;;;;20.50;46.29;98438.19;5005712;28;19928;-85
2022/04/10 11:01:51;;;;;;;;;;;;;;;20.51;47.45;98439.91;4990807;28;20746;-84
2022/04/10 11:04:18;;;;;;;;;;;;;;;20.45;46.03;98431.44;4990900;28;19980;-85
2022/04/10 11:06:44;;;;;;;;;;;;;;;20.84;49.55;98427.59;4995289;28;20443;-84
2022/04/10 11:09:22;;;;;;;;;;;;;;;21.29;46.51;98410.69;5010562;28;19921;-85
2022/04/10 11:11:48;;;;;;;;;;;;;;;21.04;45.27;98412.63;5008108;28;19922;-84
2022/04/10 11:14:33;;;;;;;;;;;;;;;20.72;46.25;98407.09;4990160;28;20423;-85
2022/04/10 11:17:11;;;;;;;;;;;;;;;20.39;47.66;98411.38;4990805;28;19918;-86
2022/04/10 11:19:37;;;;;;;;;;;;;;;20.58;46.97;98403.63;5000306;28;19973;-85
2022/04/10 11:22:04;;;;;;;;;;;;;;;20.17;47.04;98402.28;4992787;28;19925;-86
2022/04/10 11:24:29;;;;;;;;;;;;;;;19.62;47.43;98396.47;4990846;28;19918;-86
2022/04/10 11:26:55;;;;;;;;;;;;;;;19.99;47.54;98398.31;4990435;28;19926;-85
2022/04/10 11:29:20;;;;;;;;;;;;;;;20.20;46.98;98404.72;4991647;28;19926;-87
2022/04/10 11:31:51;;;;;;;;;;;;;;;20.18;47.40;98403.13;5006294;28;19922;-86
2022/04/10 11:34:24;;;;;;;;;;;;;;;20.27;48.27;98397.06;5007267;28;19940;-87
2022/04/10 11:36:52;;;;;;;;;;;;;;;20.03;47.14;98395.28;4989824;28;19922;-87
2022/04/10 11:39:21;;;;;;;;;;;;;;;20.35;47.60;98391.97;5021085;28;19980;-87
2022/04/10 11:41:48;;;;;;;;;;;;;;;20.81;46.95;98386.78;4989883;28;19929;-86
2022/04/10 11:44:14;;;;;;;;;;;;;;;21.26;48.21;98373.41;4994361;28;20018;-87
2022/04/10 11:46:40;;;;;;;;;;;;;;;21.41;45.14;98371.28;4997126;28;19961;-86
2022/04/10 11:49:05;;;;;;;;;;;;;;;20.85;45.99;98385.56;4970484;28;19922;-87
2022/04/10 11:51:30;;;;;;;;;;;;;;;20.24;47.54;98391.09;4978599;28;19926;-86
2022/04/10 11:53:59;;;;;;;;;;;;;;;20.27;48.03;98391.72;4988966;28;19936;-89
2022/04/10 11:56:24;;;;;;;;;;;;;;;20.20;48.25;98390.47;4989215;28;19937;-85
2022/04/10 11:58:50;;;;;;;;;;;;;;;20.30;48.44;98388.81;4988886;28;19922;-86
2022/04/10 12:01:15;;;;;;;;;;;;;;;20.37;49.65;98398.09;4991550;28;19933;-91
2022/04/10 12:03:41;;;;;;;;;;;;;;;19.70;46.85;98385.22;4990910;28;19921;-87
2022/04/10 12:06:08;;;;;;;;;;;;;;;19.38;47.15;98383.03;4991181;28;19922;-86
2022/04/10 12:08:34;;;;;;;;;;;;;;;19.09;47.95;98394.03;4989481;28;19924;-87
2022/04/10 12:11:01;;;;;;;;;;;;;;;18.35;48.63;98396.41;4990461;28;20000;-89
2022/04/10 12:13:27;;;;;;;;;;;;;;;17.81;48.71;98391.06;5004259;28;20297;-86
2022/04/10 12:16:08;;;;;;;;;;;;;;;18.06;48.22;98393.03;4989639;28;19922;-85
2022/04/10 12:18:45;;;;;;;;;;;;;;;17.85;48.78;98385.44;4993145;28;19925;-85
2022/04/10 12:21:10;;;;;;;;;;;;;;;17.72;47.03;98396.06;4989588;28;19918;-87
2022/04/10 12:23:35;;;;;;;;;;;;;;;17.55;47.01;98404.28;4989731;28;19939;-86
2022/04/10 12:26:01;;;;;;;;;;;;;;;17.25;46.73;98399.94;4989089;28;19926;-86
2022/04/10 12:28:28;;;;;;;;;;;;;;;16.94;46.85;98407.19;4989239;28;19929;-87
2022/04/10 12:30:54;;;;;;;;;;;;;;;16.62;46.61;98404.66;4988771;28;19926;-84
2022/04/10 12:33:20;;;;;;;;;;;;;;;16.75;48.01;98406.56;4989229;28;20494;-85
2022/04/10 12:35:45;;;;;;;;;;;;;;;17.04;48.36;98398.63;4988019;28;19926;-85
2022/04/10 12:38:11;;;;;;;;;;;;;;;16.76;46.32;98384.31;4992278;28;19929;-86
2022/04/10 12:40:36;;;;;;;;;;;;;;;16.23;46.20;98386.59;5008176;28;19925;-85
2022/04/10 12:43:03;;;;;;;;;;;;;;;16.05;47.06;98378.75;4991541;28;19917;-85
2022/04/10 12:45:30;;;;;;;;;;;;;;;16.25;47.45;98374.91;4999505;28;19926;-87
2022/04/10 12:47:55;;;;;;;;;;;;;;;16.15;46.52;98376.41;5023371;28;19925;-84